createdAt,value
2019-01-13T00:02:39.109Z,2.82
2019-01-13T00:05:29.279Z,2.87
2019-01-13T00:08:19.392Z,2.88
2019-01-13T00:14:04.935Z,2.92
2019-01-13T00:17:14.119Z,2.92
2019-01-13T00:20:04.215Z,2.94
2019-01-13T00:23:15.008Z,2.94
2019-01-13T00:29:00.952Z,2.94
2019-01-13T00:31:51.151Z,3.01
2019-01-13T00:34:22.077Z,3.02
2019-01-13T00:36:53.026Z,3.06
2019-01-13T00:39:43.175Z,3.08
2019-01-13T00:42:33.366Z,3.09
2019-01-13T00:45:44.224Z,3.08
2019-01-13T00:48:34.451Z,3.06
2019-01-13T00:51:45.260Z,3.06
2019-01-13T00:54:35.483Z,3.07
2019-01-13T00:57:25.611Z,3.08
2019-01-13T00:59:56.555Z,3.07
2019-01-13T01:03:05.907Z,3.03
2019-01-13T01:05:36.848Z,3.04
2019-01-13T01:11:37.669Z,3.04
2019-01-13T01:14:08.572Z,3.00
2019-01-13T01:16:58.556Z,2.96
2019-01-13T01:19:48.780Z,2.88
2019-01-13T01:22:19.837Z,2.77
2019-01-13T01:28:44.905Z,2.58
2019-01-13T01:31:35.051Z,2.49
2019-01-13T01:34:06.048Z,2.45
2019-01-13T01:36:56.238Z,2.44
2019-01-13T01:43:01.123Z,2.43
2019-01-13T01:45:32.071Z,2.45
2019-01-13T01:48:41.199Z,2.45
2019-01-13T01:51:31.363Z,2.47
2019-01-13T01:54:02.280Z,2.47
2019-01-13T01:56:52.284Z,2.45
2019-01-13T01:59:23.166Z,2.45
2019-01-13T02:01:54.083Z,2.46
2019-01-13T02:07:59.323Z,2.53
2019-01-13T02:10:30.242Z,2.57
2019-01-13T02:13:01.245Z,2.57
2019-01-13T02:15:51.437Z,2.60
2019-01-13T02:18:41.548Z,2.63
2019-01-13T02:21:31.667Z,2.71
2019-01-13T02:24:21.746Z,2.75
2019-01-13T02:27:12.030Z,2.77
2019-01-13T02:29:43.040Z,2.82
2019-01-13T02:35:43.817Z,2.93
2019-01-13T02:38:34.025Z,2.97
2019-01-13T02:41:05.135Z,3.08
2019-01-13T02:43:36.092Z,3.19
2019-01-13T02:46:45.327Z,3.27
2019-01-13T02:49:35.533Z,3.35
2019-01-13T02:52:44.628Z,3.39
2019-01-13T02:55:34.846Z,3.42
2019-01-13T02:58:25.020Z,3.43
2019-01-13T03:00:57.225Z,3.45
2019-01-13T03:04:06.877Z,3.51
2019-01-13T03:06:56.973Z,3.50
2019-01-13T03:09:47.149Z,3.49
2019-01-13T03:12:37.197Z,3.48
2019-01-13T03:15:48.001Z,3.46
2019-01-13T03:18:18.913Z,3.46
2019-01-13T03:21:29.749Z,3.43
2019-01-13T03:24:39.033Z,3.33
2019-01-13T03:31:11.375Z,3.31
2019-01-13T03:34:30.500Z,3.34
2019-01-13T03:37:20.630Z,3.32
2019-01-13T03:39:51.642Z,3.36
2019-01-13T03:42:22.625Z,3.40
2019-01-13T03:44:53.514Z,3.44
2019-01-13T03:47:43.687Z,3.50
2019-01-13T03:50:52.910Z,3.51
2019-01-13T03:53:43.110Z,3.50
2019-01-13T03:56:14.130Z,3.56
2019-01-13T04:01:54.301Z,3.54
2019-01-13T04:05:03.484Z,3.56
2019-01-13T04:07:53.620Z,3.61
2019-01-13T04:10:43.849Z,3.66
2019-01-13T04:13:34.002Z,3.66
2019-01-13T04:16:44.831Z,3.65
2019-01-13T04:19:15.762Z,3.63
2019-01-13T04:25:59.055Z,3.60
2019-01-13T04:28:49.165Z,3.59
2019-01-13T04:31:39.157Z,3.56
2019-01-13T04:37:43.956Z,3.54
2019-01-13T04:40:34.259Z,3.54
2019-01-13T04:43:45.040Z,3.54
2019-01-13T04:46:16.125Z,3.53
2019-01-13T04:49:06.276Z,3.53
2019-01-13T04:51:56.401Z,3.53
2019-01-13T04:54:27.350Z,3.52
2019-01-13T04:56:58.397Z,3.54
2019-01-13T04:59:29.358Z,3.54
2019-01-13T05:02:19.609Z,3.58
2019-01-13T05:05:09.737Z,3.61
2019-01-13T05:10:49.832Z,3.63
2019-01-13T05:13:39.918Z,3.66
2019-01-13T05:16:10.821Z,3.67
2019-01-13T05:19:00.938Z,3.66
2019-01-13T05:21:31.888Z,3.68
2019-01-13T05:24:41.124Z,3.70
2019-01-13T05:27:12.013Z,3.71
2019-01-13T05:29:42.976Z,3.71
2019-01-13T05:32:33.270Z,3.74
2019-01-13T05:35:44.086Z,3.75
2019-01-13T05:38:15.059Z,3.76
2019-01-13T05:41:05.348Z,3.77
2019-01-13T05:43:55.536Z,3.79
2019-01-13T05:49:35.643Z,3.80
2019-01-13T05:52:25.846Z,3.80
2019-01-13T05:54:56.748Z,3.78
2019-01-13T05:57:27.718Z,3.78
2019-01-13T06:00:17.928Z,3.80
2019-01-13T06:05:38.936Z,3.80
2019-01-13T06:08:29.079Z,3.82
2019-01-13T06:11:19.759Z,3.84
2019-01-13T06:14:09.764Z,3.83
2019-01-13T06:16:59.918Z,3.88
2019-01-13T06:19:30.799Z,3.90
2019-01-13T06:22:21.037Z,3.90
2019-01-13T06:28:00.978Z,3.94
2019-01-13T06:30:31.846Z,3.93
2019-01-13T06:36:36.571Z,3.94
2019-01-13T06:39:47.421Z,3.95
2019-01-13T06:42:18.383Z,3.96
2019-01-13T06:45:08.542Z,3.93
2019-01-13T06:47:58.766Z,3.93
2019-01-13T06:51:09.465Z,3.95
2019-01-13T06:54:00.134Z,4.03
2019-01-13T06:56:31.254Z,4.04
2019-01-13T07:02:30.548Z,4.06
2019-01-13T07:08:29.880Z,4.08
2019-01-13T07:11:20.079Z,4.15
2019-01-13T07:13:51.128Z,4.16
2019-01-13T07:19:31.256Z,4.20
2019-01-13T07:22:21.490Z,4.23
2019-01-13T07:24:52.555Z,4.28
2019-01-13T07:27:42.806Z,4.32
2019-01-13T07:30:53.641Z,4.37
2019-01-13T07:36:53.041Z,4.36
2019-01-13T07:42:52.507Z,4.34
2019-01-13T07:48:51.705Z,4.33
2019-01-13T07:51:22.681Z,4.36
2019-01-13T07:57:46.843Z,4.39
2019-01-13T08:04:12.086Z,4.48
2019-01-13T08:07:02.188Z,4.54
2019-01-13T08:09:33.197Z,4.60
2019-01-13T08:15:58.621Z,4.68
2019-01-13T08:18:49.300Z,4.74
2019-01-13T08:21:39.633Z,4.74
2019-01-13T08:24:10.594Z,4.78
2019-01-13T08:30:56.689Z,4.80
2019-01-13T08:33:27.671Z,4.83
2019-01-13T08:35:58.797Z,4.87
2019-01-13T08:42:03.385Z,4.94
2019-01-13T08:44:53.413Z,4.96
2019-01-13T08:47:43.411Z,4.98
2019-01-13T08:50:33.837Z,5.05
2019-01-13T08:53:04.802Z,5.08
2019-01-13T08:55:55.057Z,5.10
2019-01-13T08:59:04.338Z,5.10
2019-01-13T09:01:54.595Z,5.09
2019-01-13T09:04:44.681Z,5.09
2019-01-13T09:07:15.819Z,5.09
2019-01-13T09:10:45.694Z,5.11
2019-01-13T09:13:35.935Z,5.11
2019-01-13T09:17:05.809Z,5.12
2019-01-13T09:19:55.994Z,5.13
2019-01-13T09:22:27.009Z,5.15
2019-01-13T09:24:57.975Z,5.20
2019-01-13T09:27:48.212Z,5.21
2019-01-13T09:30:59.045Z,5.18
2019-01-13T09:33:49.230Z,5.19
2019-01-13T09:36:39.448Z,5.18
2019-01-13T09:39:48.708Z,5.13
2019-01-13T09:42:38.982Z,5.11
2019-01-13T09:45:49.784Z,5.06
2019-01-13T09:48:40.167Z,5.05
2019-01-13T09:51:30.341Z,5.04
2019-01-13T09:54:01.401Z,5.08
2019-01-13T09:56:51.547Z,5.09
2019-01-13T09:59:41.672Z,5.14
2019-01-13T10:02:31.829Z,5.15
2019-01-13T10:05:22.005Z,5.20
2019-01-13T10:07:53.007Z,5.22
2019-01-13T10:10:43.913Z,5.19
2019-01-13T10:14:13.420Z,5.15
2019-01-13T10:17:03.665Z,5.11
2019-01-13T10:22:43.749Z,5.14
2019-01-13T10:28:23.821Z,5.12
2019-01-13T10:34:03.894Z,5.09
2019-01-13T10:36:54.110Z,5.09
2019-01-13T10:39:25.010Z,5.09
2019-01-13T10:41:55.994Z,5.04
2019-01-13T10:44:46.126Z,5.03
2019-01-13T10:47:36.202Z,5.07
2019-01-13T10:51:06.228Z,4.94
2019-01-13T10:53:56.349Z,4.81
2019-01-13T10:57:05.654Z,4.66
2019-01-13T11:02:26.584Z,4.46
2019-01-13T11:05:16.714Z,4.42
2019-01-13T11:11:23.455Z,4.25
2019-01-13T11:14:13.710Z,4.12
2019-01-13T11:17:03.994Z,4.02
2019-01-13T11:19:54.125Z,3.97
2019-01-13T11:22:44.315Z,3.83
2019-01-13T11:25:55.098Z,3.77
2019-01-13T11:28:26.106Z,3.73
2019-01-13T11:30:57.090Z,3.66
2019-01-13T11:34:06.619Z,3.56
2019-01-13T11:37:17.472Z,3.49
2019-01-13T11:40:07.744Z,3.43
2019-01-13T11:45:47.841Z,3.34
2019-01-13T11:48:18.857Z,3.30
2019-01-13T11:51:08.903Z,3.23
2019-01-13T11:53:59.089Z,3.13
2019-01-13T11:56:49.346Z,3.08
2019-01-13T12:07:04.973Z,2.99
2019-01-13T12:09:55.649Z,2.90
2019-01-13T12:13:47.881Z,2.81
2019-01-13T12:17:16.610Z,2.76
2019-01-13T12:20:09.021Z,2.75
2019-01-13T12:22:40.095Z,2.64
2019-01-13T12:25:52.745Z,2.55
2019-01-13T12:31:42.408Z,2.42
2019-01-13T12:34:32.645Z,2.42
2019-01-13T12:37:35.134Z,2.42
2019-01-13T12:40:34.093Z,2.44
2019-01-13T12:43:45.158Z,2.49
2019-01-13T13:03:38.697Z,2.75
2019-01-13T13:06:28.987Z,2.81
2019-01-13T13:09:19.429Z,2.84
2019-01-13T13:12:09.883Z,2.86
2019-01-13T13:15:00.205Z,2.91
2019-01-13T13:18:11.143Z,2.89
2019-01-13T13:20:42.445Z,2.98
2019-01-13T13:23:32.652Z,3.00
2019-01-13T13:26:43.525Z,3.00
2019-01-13T13:29:14.569Z,3.09
2019-01-13T13:32:04.837Z,3.12
2019-01-13T13:38:26.310Z,3.24
2019-01-13T13:41:16.723Z,3.26
2019-01-13T13:46:55.688Z,3.29
2019-01-13T13:49:26.704Z,3.32
2019-01-13T13:52:17.024Z,3.34
2019-01-13T13:55:08.317Z,3.38
2019-01-13T13:57:39.574Z,3.42
2019-01-13T14:00:50.448Z,3.49
2019-01-13T14:03:45.721Z,3.54
2019-01-13T14:07:10.836Z,3.61
2019-01-13T14:09:41.715Z,3.62
2019-01-13T14:12:31.948Z,3.66
2019-01-13T14:18:12.380Z,3.74
2019-01-13T14:20:43.401Z,3.77
2019-01-13T14:23:14.425Z,3.82
2019-01-13T14:25:45.493Z,3.89
2019-01-13T14:28:24.624Z,3.92
2019-01-13T14:30:55.657Z,3.97
2019-01-13T14:33:26.695Z,4.03
2019-01-13T14:35:58.209Z,4.10
2019-01-13T14:38:48.320Z,4.15
2019-01-13T14:41:59.298Z,4.16
2019-01-13T14:44:49.582Z,4.25
2019-01-13T14:47:51.882Z,4.32
2019-01-13T14:50:50.996Z,4.40
2019-01-13T14:53:41.162Z,4.45
2019-01-13T14:59:22.947Z,4.58
2019-01-13T15:02:13.058Z,4.65
2019-01-13T15:05:03.312Z,4.74
2019-01-13T15:07:34.365Z,4.81
2019-01-13T15:10:45.221Z,4.92
2019-01-13T15:13:16.226Z,5.00
2019-01-13T15:15:47.189Z,5.12
2019-01-13T15:18:37.335Z,5.23
2019-01-13T15:28:18.410Z,5.60
2019-01-13T15:31:08.645Z,5.78
2019-01-13T15:33:58.936Z,5.89
2019-01-13T15:39:19.826Z,6.03
2019-01-13T15:45:00.264Z,6.19
2019-01-13T15:50:40.832Z,6.30
2019-01-13T15:53:11.904Z,6.40
2019-01-13T15:55:42.943Z,6.47
2019-01-13T15:58:14.240Z,6.50
2019-01-13T16:01:04.656Z,6.48
2019-01-13T16:03:54.878Z,6.50
2019-01-13T16:06:25.966Z,6.60
2019-01-13T16:09:16.168Z,6.64
2019-01-13T16:12:06.411Z,6.69
2019-01-13T16:17:46.722Z,6.76
2019-01-13T16:21:16.661Z,6.78
2019-01-13T16:27:02.600Z,6.90
2019-01-13T16:29:52.683Z,6.89
2019-01-13T16:33:03.492Z,6.98
2019-01-13T16:35:55.114Z,6.97
2019-01-13T16:38:45.485Z,7.02
2019-01-13T16:44:50.607Z,7.16
2019-01-13T16:47:40.926Z,7.17
2019-01-13T16:50:31.133Z,7.20
2019-01-13T16:53:40.468Z,7.22
2019-01-13T16:56:51.297Z,7.20
2019-01-13T16:59:41.398Z,7.21
2019-01-13T17:06:01.445Z,7.20
2019-01-13T17:08:52.186Z,7.21
2019-01-13T17:14:39.263Z,7.28
2019-01-13T17:17:10.425Z,7.25
2019-01-13T17:20:00.792Z,7.16
2019-01-13T17:22:50.915Z,7.16
2019-01-13T17:25:41.422Z,7.16
2019-01-13T17:28:31.570Z,7.12
2019-01-13T17:34:37.004Z,7.05
2019-01-13T17:37:27.731Z,6.98
2019-01-13T17:39:58.659Z,6.95
2019-01-13T17:42:48.953Z,6.93
2019-01-13T17:45:59.753Z,6.90
2019-01-13T17:49:08.994Z,6.88
2019-01-13T17:51:59.235Z,6.90
2019-01-13T17:55:50.417Z,6.91
2019-01-13T17:58:40.736Z,6.92
2019-01-13T18:01:51.857Z,6.96
2019-01-13T18:05:02.806Z,6.94
2019-01-13T18:07:53.114Z,6.99
2019-01-13T18:10:43.313Z,6.96
2019-01-13T18:13:14.319Z,6.99
2019-01-13T18:16:04.562Z,7.02
2019-01-13T18:22:04.031Z,7.06
2019-01-13T18:24:54.208Z,7.09
2019-01-13T18:27:44.596Z,7.09
2019-01-13T18:30:35.182Z,7.13
2019-01-13T18:33:45.957Z,7.17
2019-01-13T18:36:36.175Z,7.15
2019-01-13T18:39:46.975Z,7.19
2019-01-13T18:42:57.833Z,7.18
2019-01-13T18:45:28.845Z,7.18
2019-01-13T18:48:19.042Z,7.22
2019-01-13T18:51:10.453Z,7.17
2019-01-13T18:54:02.378Z,7.23
2019-01-13T18:56:52.484Z,7.27
2019-01-13T18:59:42.591Z,7.29
2019-01-13T19:02:32.673Z,7.26
2019-01-13T19:05:43.559Z,7.26
2019-01-13T19:08:33.981Z,7.24
2019-01-13T19:11:46.441Z,7.24
2019-01-13T19:14:36.767Z,7.26
2019-01-13T19:17:26.944Z,7.28
2019-01-13T19:19:57.898Z,7.28
2019-01-13T19:22:48.215Z,7.28
2019-01-13T19:25:38.239Z,7.28
2019-01-13T19:28:47.747Z,7.28
2019-01-13T19:34:27.884Z,7.33
2019-01-13T19:40:49.516Z,7.34
2019-01-13T19:43:32.463Z,7.35
2019-01-13T19:46:22.742Z,7.30
2019-01-13T19:49:12.866Z,7.30
2019-01-13T19:54:58.646Z,7.38
2019-01-13T19:57:29.795Z,7.41
2019-01-13T20:00:00.963Z,7.34
2019-01-13T20:02:51.362Z,7.28
2019-01-13T20:05:41.706Z,7.17
2019-01-13T20:08:12.994Z,7.08
2019-01-13T20:11:43.279Z,7.00
2019-01-13T20:14:33.355Z,7.11
2019-01-13T20:17:23.667Z,7.11
2019-01-13T20:20:13.956Z,7.05
2019-01-13T20:23:04.134Z,7.03
2019-01-13T20:25:35.209Z,6.90
2019-01-13T20:28:25.389Z,6.81
2019-01-13T20:30:56.598Z,6.85
2019-01-13T20:33:46.703Z,7.01
2019-01-13T20:36:36.986Z,7.08
2019-01-13T20:39:48.067Z,6.98
2019-01-13T20:42:19.092Z,6.90
2019-01-13T20:45:09.219Z,6.89
2019-01-13T20:47:40.231Z,6.89
2019-01-13T20:50:51.047Z,6.94
2019-01-13T20:53:21.970Z,7.00
2019-01-13T20:55:52.935Z,6.99
2019-01-13T20:58:23.935Z,6.95
2019-01-13T21:00:54.879Z,6.98
2019-01-13T21:04:04.252Z,6.99
2019-01-13T21:06:35.383Z,7.03
2019-01-13T21:09:46.227Z,7.09
2019-01-13T21:12:36.429Z,7.08
2019-01-13T21:15:47.275Z,7.00
2019-01-13T21:18:37.498Z,7.01
2019-01-13T21:21:28.409Z,6.97
2019-01-13T21:30:44.916Z,6.82
2019-01-13T21:33:15.978Z,6.60
2019-01-13T21:36:06.145Z,6.61
2019-01-13T21:38:56.384Z,6.53
2019-01-13T21:42:07.222Z,6.50
2019-01-13T21:44:57.463Z,6.46
2019-01-13T21:47:47.571Z,6.40
2019-01-13T21:50:56.902Z,6.41
2019-01-13T21:53:47.033Z,6.41
2019-01-13T21:56:18.151Z,6.43
2019-01-13T21:59:08.228Z,6.42
2019-01-13T22:01:39.237Z,6.41
2019-01-13T22:04:29.571Z,6.43
2019-01-13T22:10:34.502Z,6.44
2019-01-13T22:13:45.342Z,6.52
2019-01-13T22:16:16.440Z,6.46
2019-01-13T22:19:06.663Z,5.98
2019-01-13T22:22:36.535Z,5.37
2019-01-13T22:25:47.359Z,5.15
2019-01-13T22:28:18.461Z,5.26
2019-01-13T22:31:08.564Z,5.25
2019-01-13T22:33:39.421Z,5.11
2019-01-13T22:36:10.536Z,5.01
2019-01-13T22:39:00.919Z,4.91
2019-01-13T22:42:10.259Z,4.94
2019-01-13T22:47:31.210Z,4.84
2019-01-13T22:56:25.464Z,4.89
2019-01-13T22:59:15.570Z,4.89
2019-01-13T23:04:36.364Z,4.97
2019-01-13T23:07:26.518Z,4.91
2019-01-13T23:09:57.559Z,4.88
2019-01-13T23:12:47.604Z,4.74
2019-01-13T23:15:18.598Z,4.70
2019-01-13T23:18:08.684Z,4.81
2019-01-13T23:20:58.975Z,4.85
2019-01-13T23:23:49.206Z,4.92
2019-01-13T23:26:39.338Z,4.85
2019-01-13T23:32:19.526Z,4.96
2019-01-13T23:35:09.598Z,4.90
2019-01-13T23:37:40.754Z,4.88
2019-01-13T23:43:01.836Z,4.82
2019-01-13T23:46:11.424Z,4.99
2019-01-13T23:51:57.325Z,5.05
2019-01-13T23:54:47.600Z,5.16
